createdAt,value
2019-04-04T00:00:49.757Z,0.00
2019-04-04T00:01:49.702Z,0.00
2019-04-04T00:02:49.855Z,0.00
2019-04-04T00:03:51.535Z,0.00
2019-04-04T00:04:52.339Z,0.00
2019-04-04T00:05:49.654Z,0.00
2019-04-04T00:06:49.650Z,0.00
2019-04-04T00:07:49.646Z,0.00
2019-04-04T00:08:49.650Z,0.00
2019-04-04T00:09:49.610Z,0.00
2019-04-04T00:10:49.603Z,0.00
2019-04-04T00:11:49.587Z,0.00
2019-04-04T00:12:49.575Z,0.00
2019-04-04T00:13:49.592Z,0.00
2019-04-04T00:14:49.561Z,0.00
2019-04-04T00:15:49.543Z,0.00
2019-04-04T00:16:49.554Z,0.00
2019-04-04T00:17:49.519Z,0.00
2019-04-04T00:18:49.510Z,0.00
2019-04-04T00:19:49.496Z,0.00
2019-04-04T00:20:49.513Z,0.00
2019-04-04T00:21:49.497Z,0.00
2019-04-04T00:22:49.466Z,0.00
2019-04-04T00:23:49.454Z,0.00
2019-04-04T00:24:49.465Z,0.00
2019-04-04T00:25:49.431Z,0.00
2019-04-04T00:26:49.417Z,0.00
2019-04-04T00:27:49.433Z,0.00
2019-04-04T00:28:49.398Z,0.00
2019-04-04T00:29:49.409Z,0.00
2019-04-04T00:30:49.373Z,0.00
2019-04-04T00:31:49.835Z,0.00
2019-04-04T00:32:50.918Z,0.00
2019-04-04T00:33:49.340Z,0.00
2019-04-04T00:34:49.332Z,0.00
2019-04-04T00:35:49.326Z,0.00
2019-04-04T00:36:49.320Z,0.00
2019-04-04T00:37:49.346Z,0.00
2019-04-04T00:38:49.303Z,0.00
2019-04-04T00:39:49.285Z,0.00
2019-04-04T00:40:49.275Z,0.00
2019-04-04T00:41:49.252Z,0.00
2019-04-04T00:42:49.260Z,0.00
2019-04-04T00:43:49.906Z,0.00
2019-04-04T00:44:49.215Z,0.00
2019-04-04T00:45:49.204Z,0.00
2019-04-04T00:46:49.198Z,0.00
2019-04-04T00:47:49.197Z,0.00
2019-04-04T00:48:49.180Z,0.00
2019-04-04T00:49:49.159Z,0.00
2019-04-04T00:50:49.172Z,0.00
2019-04-04T00:51:49.136Z,0.00
2019-04-04T00:52:49.149Z,0.00
2019-04-04T00:53:49.115Z,0.00
2019-04-04T00:54:49.106Z,0.00
2019-04-04T00:55:49.094Z,0.00
2019-04-04T00:56:49.329Z,0.00
2019-04-04T00:57:50.354Z,0.00
2019-04-04T00:58:51.678Z,0.00
2019-04-04T00:59:49.048Z,0.00
2019-04-04T01:00:49.044Z,0.00
2019-04-04T01:01:49.031Z,0.00
2019-04-04T01:02:49.028Z,0.00
2019-04-04T01:03:49.038Z,0.00
2019-04-04T01:04:48.993Z,0.00
2019-04-04T01:05:48.984Z,0.00
2019-04-04T01:06:48.972Z,0.00
2019-04-04T01:07:48.980Z,0.00
2019-04-04T01:08:48.950Z,0.00
2019-04-04T01:09:48.973Z,0.00
2019-04-04T01:10:49.797Z,0.00
2019-04-04T01:11:50.841Z,0.00
2019-04-04T01:12:50.167Z,0.00
2019-04-04T01:13:48.892Z,0.00
2019-04-04T01:14:48.906Z,0.00
2019-04-04T01:15:48.868Z,0.00
2019-04-04T01:16:48.857Z,0.00
2019-04-04T01:17:48.871Z,0.00
2019-04-04T01:18:48.839Z,0.00
2019-04-04T01:19:49.712Z,0.00
2019-04-04T01:20:50.476Z,0.00
2019-04-04T01:21:48.799Z,0.00
2019-04-04T01:22:48.787Z,0.00
2019-04-04T01:23:48.777Z,0.00
2019-04-04T01:24:48.789Z,0.00
2019-04-04T01:25:48.756Z,0.00
2019-04-04T01:26:48.750Z,0.00
2019-04-04T01:27:48.740Z,0.00
2019-04-04T01:28:48.720Z,0.00
2019-04-04T01:29:48.734Z,0.00
2019-04-04T01:30:48.699Z,0.00
2019-04-04T01:31:48.691Z,0.00
2019-04-04T01:32:48.771Z,0.00
2019-04-04T01:33:50.788Z,0.00
2019-04-04T01:34:51.763Z,0.00
2019-04-04T01:35:48.642Z,0.00
2019-04-04T01:36:48.659Z,0.00
2019-04-04T01:37:48.642Z,0.00
2019-04-04T01:38:48.608Z,0.00
2019-04-04T01:39:48.606Z,0.00
2019-04-04T01:40:48.612Z,0.00
2019-04-04T01:41:48.575Z,0.00
2019-04-04T01:42:48.567Z,0.00
2019-04-04T01:43:48.571Z,0.00
2019-04-04T01:44:48.541Z,0.00
2019-04-04T01:45:48.560Z,0.00
2019-04-04T01:46:48.533Z,0.00
2019-04-04T01:47:48.679Z,0.00
2019-04-04T01:48:49.950Z,0.00
2019-04-04T01:49:49.956Z,0.00
2019-04-04T01:50:48.474Z,0.00
2019-04-04T01:51:48.502Z,0.00
2019-04-04T01:52:48.492Z,0.00
2019-04-04T01:53:48.439Z,0.00
2019-04-04T01:54:48.428Z,0.00
2019-04-04T01:55:48.417Z,0.00
2019-04-04T01:56:48.428Z,0.00
2019-04-04T01:57:48.411Z,0.00
2019-04-04T01:58:48.412Z,0.00
2019-04-04T01:59:48.371Z,0.00
2019-04-04T02:00:48.384Z,0.00
2019-04-04T02:01:48.348Z,0.00
2019-04-04T02:02:49.915Z,0.00
2019-04-04T02:03:48.391Z,0.00
2019-04-04T02:04:48.318Z,0.00
2019-04-04T02:05:48.312Z,0.00
2019-04-04T02:06:48.296Z,0.00
2019-04-04T02:07:48.282Z,0.00
2019-04-04T02:08:48.328Z,0.00
2019-04-04T02:09:48.263Z,0.00
2019-04-04T02:10:48.249Z,0.00
2019-04-04T02:11:48.238Z,0.00
2019-04-04T02:12:48.227Z,0.00
2019-04-04T02:13:48.246Z,0.00
2019-04-04T02:14:48.239Z,0.00
2019-04-04T02:15:48.191Z,0.00
2019-04-04T02:16:50.967Z,0.00
2019-04-04T02:17:48.203Z,0.00
2019-04-04T02:18:48.158Z,0.00
2019-04-04T02:19:48.155Z,0.00
2019-04-04T02:20:48.167Z,0.00
2019-04-04T02:21:48.128Z,0.00
2019-04-04T02:22:48.112Z,0.00
2019-04-04T02:23:48.105Z,0.00
2019-04-04T02:24:48.118Z,0.00
2019-04-04T02:25:48.080Z,0.00
2019-04-04T02:26:48.073Z,0.00
2019-04-04T02:27:48.059Z,0.00
2019-04-04T02:28:48.068Z,0.00
2019-04-04T02:29:48.037Z,0.00
2019-04-04T02:30:48.511Z,0.00
2019-04-04T02:31:48.042Z,0.00
2019-04-04T02:32:48.019Z,0.00
2019-04-04T02:33:48.000Z,0.00
2019-04-04T02:34:47.977Z,0.00
2019-04-04T02:35:47.968Z,0.00
2019-04-04T02:36:49.294Z,0.00
2019-04-04T02:37:47.973Z,0.00
2019-04-04T02:38:47.941Z,0.00
2019-04-04T02:39:47.932Z,0.00
2019-04-04T02:40:47.912Z,0.00
2019-04-04T02:41:49.184Z,0.00
2019-04-04T02:42:47.890Z,0.00
2019-04-04T02:43:47.876Z,0.00
2019-04-04T02:44:47.876Z,0.00
2019-04-04T02:45:47.854Z,0.00
2019-04-04T02:46:47.867Z,0.00
2019-04-04T02:47:51.199Z,0.00
2019-04-04T02:48:47.822Z,0.00
2019-04-04T02:49:47.808Z,0.00
2019-04-04T02:50:47.809Z,0.00
2019-04-04T02:51:47.829Z,0.00
2019-04-04T02:52:47.786Z,0.00
2019-04-04T02:53:51.891Z,0.00
2019-04-04T02:54:48.760Z,0.00
2019-04-04T02:55:47.743Z,0.00
2019-04-04T02:56:47.753Z,0.00
2019-04-04T02:57:47.719Z,0.00
2019-04-04T02:58:47.716Z,0.00
2019-04-04T02:59:47.702Z,0.00
2019-04-04T03:00:47.707Z,0.00
2019-04-04T03:01:47.720Z,0.00
2019-04-04T03:02:47.665Z,0.00
2019-04-04T03:03:47.653Z,0.00
2019-04-04T03:04:47.668Z,0.00
2019-04-04T03:05:50.933Z,0.00
2019-04-04T03:06:47.618Z,0.00
2019-04-04T03:07:47.648Z,0.00
2019-04-04T03:08:47.604Z,0.00
2019-04-04T03:09:47.607Z,0.00
2019-04-04T03:10:48.927Z,0.00
2019-04-04T03:11:47.593Z,0.00
2019-04-04T03:12:47.563Z,0.00
2019-04-04T03:13:47.569Z,0.00
2019-04-04T03:14:50.545Z,0.00
2019-04-04T03:15:48.293Z,0.00
2019-04-04T03:16:47.520Z,0.00
2019-04-04T03:17:47.495Z,0.00
2019-04-04T03:18:47.536Z,0.00
2019-04-04T03:19:47.476Z,0.00
2019-04-04T03:20:50.363Z,0.00
2019-04-04T03:21:47.458Z,0.00
2019-04-04T03:22:47.439Z,0.00
2019-04-04T03:23:47.471Z,0.00
2019-04-04T03:24:47.441Z,0.00
2019-04-04T03:25:48.201Z,0.00
2019-04-04T03:26:52.150Z,0.00
2019-04-04T03:27:48.381Z,0.00
2019-04-04T03:28:47.370Z,0.00
2019-04-04T03:29:47.394Z,0.00
2019-04-04T03:30:54.794Z,0.00
2019-04-04T03:31:48.339Z,0.00
2019-04-04T03:32:52.487Z,0.00
2019-04-04T03:33:48.316Z,0.00
2019-04-04T03:34:50.252Z,0.00
2019-04-04T03:35:47.294Z,0.00
2019-04-04T03:36:47.287Z,0.00
2019-04-04T03:37:47.315Z,0.00
2019-04-04T03:38:47.496Z,0.00
2019-04-04T03:39:51.959Z,0.00
2019-04-04T03:40:48.261Z,0.00
2019-04-04T03:41:47.226Z,0.00
2019-04-04T03:42:47.215Z,0.00
2019-04-04T03:43:48.928Z,0.00
2019-04-04T03:44:47.200Z,0.00
2019-04-04T03:45:47.210Z,0.00
2019-04-04T03:46:47.183Z,0.00
2019-04-04T03:47:47.156Z,0.00
2019-04-04T03:48:49.845Z,0.00
2019-04-04T03:49:47.133Z,0.00
2019-04-04T03:50:47.160Z,0.00
2019-04-04T03:51:47.136Z,0.00
2019-04-04T03:52:47.103Z,0.00
2019-04-04T03:53:49.263Z,0.00
2019-04-04T03:54:47.078Z,0.00
2019-04-04T03:55:47.105Z,0.00
2019-04-04T03:56:47.059Z,0.00
2019-04-04T03:57:47.046Z,0.00
2019-04-04T03:58:47.419Z,0.00
2019-04-04T03:59:47.023Z,0.00
2019-04-04T04:00:47.011Z,0.00
2019-04-04T04:01:47.034Z,0.00
2019-04-04T04:02:49.660Z,0.00
2019-04-04T04:03:46.977Z,0.00
2019-04-04T04:04:46.968Z,0.00
2019-04-04T04:05:46.961Z,0.00
2019-04-04T04:06:46.944Z,0.00
2019-04-04T04:07:48.095Z,0.00
2019-04-04T04:08:46.940Z,0.00
2019-04-04T04:09:46.909Z,0.00
2019-04-04T04:10:46.898Z,0.00
2019-04-04T04:11:46.904Z,0.00
2019-04-04T04:12:46.878Z,0.00
2019-04-04T04:13:49.951Z,0.00
2019-04-04T04:14:46.856Z,0.00
2019-04-04T04:15:46.840Z,0.00
2019-04-04T04:16:46.831Z,0.00
2019-04-04T04:17:46.828Z,0.00
2019-04-04T04:18:46.826Z,0.00
2019-04-04T04:19:46.798Z,0.00
2019-04-04T04:20:46.790Z,0.00
2019-04-04T04:21:46.776Z,0.00
2019-04-04T04:22:50.301Z,0.00
2019-04-04T04:23:49.630Z,0.00
2019-04-04T04:24:46.768Z,0.00
2019-04-04T04:25:46.759Z,0.00
2019-04-04T04:26:46.721Z,0.00
2019-04-04T04:27:48.382Z,0.00
2019-04-04T04:28:46.700Z,0.00
2019-04-04T04:29:46.725Z,4.00
2019-04-04T04:30:46.674Z,0.00
2019-04-04T04:31:49.351Z,0.00
2019-04-04T04:32:46.660Z,4.00
2019-04-04T04:33:46.647Z,0.00
2019-04-04T04:34:46.671Z,4.00
2019-04-04T04:35:46.620Z,4.00
2019-04-04T04:36:48.006Z,4.00
2019-04-04T04:37:46.602Z,4.00
2019-04-04T04:38:46.587Z,4.00
2019-04-04T04:39:46.598Z,8.00
2019-04-04T04:40:47.485Z,8.00
2019-04-04T04:41:46.552Z,8.00
2019-04-04T04:42:46.541Z,12.00
2019-04-04T04:43:46.530Z,12.00
2019-04-04T04:44:46.518Z,16.00
2019-04-04T04:45:46.543Z,16.00
2019-04-04T04:46:49.698Z,20.00
2019-04-04T04:47:46.489Z,20.00
2019-04-04T04:48:46.473Z,24.00
2019-04-04T04:49:46.464Z,28.00
2019-04-04T04:50:46.458Z,32.00
2019-04-04T04:51:46.469Z,32.00
2019-04-04T04:52:47.545Z,32.00
2019-04-04T04:53:50.166Z,32.00
2019-04-04T04:54:46.403Z,36.00
2019-04-04T04:55:46.399Z,40.00
2019-04-04T04:56:46.406Z,44.00
2019-04-04T04:57:46.391Z,48.00
2019-04-04T04:58:46.385Z,56.00
2019-04-04T04:59:46.356Z,60.00
2019-04-04T05:00:47.243Z,64.00
2019-04-04T05:01:50.133Z,72.00
2019-04-04T05:02:46.316Z,76.00
2019-04-04T05:03:46.308Z,80.00
2019-04-04T05:04:46.302Z,88.00
2019-04-04T05:05:46.280Z,88.00
2019-04-04T05:06:46.296Z,96.00
2019-04-04T05:07:46.265Z,100.00
2019-04-04T05:08:46.249Z,108.00
2019-04-04T05:09:46.235Z,112.00
2019-04-04T05:10:46.357Z,120.00
2019-04-04T05:11:46.238Z,120.00
2019-04-04T05:12:46.216Z,124.00
2019-04-04T05:13:46.281Z,136.00
2019-04-04T05:14:46.204Z,152.00
2019-04-04T05:15:46.169Z,164.00
2019-04-04T05:16:46.157Z,168.00
2019-04-04T05:17:46.146Z,172.00
2019-04-04T05:18:48.189Z,180.00
2019-04-04T05:19:46.148Z,188.00
2019-04-04T05:20:46.146Z,208.00
2019-04-04T05:21:46.107Z,228.00
2019-04-04T05:22:46.106Z,236.00
2019-04-04T05:23:46.992Z,236.00
2019-04-04T05:24:49.122Z,232.00
2019-04-04T05:25:53.719Z,236.00
2019-04-04T05:26:47.076Z,244.00
2019-04-04T05:27:46.035Z,256.00
2019-04-04T05:28:46.072Z,276.00
2019-04-04T05:29:46.036Z,296.00
2019-04-04T05:30:47.300Z,312.00
2019-04-04T05:31:45.990Z,324.00
2019-04-04T05:32:45.979Z,340.00
2019-04-04T05:33:45.969Z,356.00
2019-04-04T05:34:45.986Z,380.00
2019-04-04T05:35:45.947Z,396.00
2019-04-04T05:36:45.938Z,396.00
2019-04-04T05:37:45.924Z,404.00
2019-04-04T05:38:47.273Z,428.00
2019-04-04T05:39:47.066Z,452.00
2019-04-04T05:40:45.914Z,440.00
2019-04-04T05:41:45.888Z,420.00
2019-04-04T05:42:45.895Z,412.00
2019-04-04T05:43:45.904Z,420.00
2019-04-04T05:44:45.867Z,432.00
2019-04-04T05:45:45.967Z,436.00
2019-04-04T05:46:45.830Z,452.00
2019-04-04T05:47:45.834Z,492.00
2019-04-04T05:48:45.843Z,544.00
2019-04-04T05:49:45.789Z,548.00
2019-04-04T05:50:45.777Z,564.00
2019-04-04T05:51:46.325Z,592.00
2019-04-04T05:52:45.758Z,600.00
2019-04-04T05:53:45.776Z,604.00
2019-04-04T05:54:45.732Z,632.00
2019-04-04T05:55:45.749Z,672.00
2019-04-04T05:56:48.601Z,744.00
2019-04-04T05:57:45.720Z,872.00
2019-04-04T05:58:45.699Z,940.00
2019-04-04T05:59:45.702Z,948.00
2019-04-04T06:00:45.708Z,952.00
2019-04-04T06:01:45.711Z,956.00
2019-04-04T06:02:45.645Z,960.00
2019-04-04T06:03:47.854Z,972.00
2019-04-04T06:04:45.620Z,984.00
2019-04-04T06:05:45.643Z,1004.00
2019-04-04T06:06:45.629Z,1032.00
2019-04-04T06:07:45.602Z,1060.00
2019-04-04T06:08:45.574Z,1104.00
2019-04-04T06:09:46.927Z,1128.00
2019-04-04T06:10:45.573Z,1156.00
2019-04-04T06:11:48.445Z,1208.00
2019-04-04T06:12:45.528Z,1216.00
2019-04-04T06:13:45.552Z,1236.00
2019-04-04T06:14:46.110Z,1240.00
2019-04-04T06:15:45.495Z,1252.00
2019-04-04T06:16:45.483Z,1284.00
2019-04-04T06:17:45.502Z,1308.00
2019-04-04T06:18:45.461Z,1332.00
2019-04-04T06:19:45.450Z,1368.00
2019-04-04T06:20:48.344Z,1388.00
2019-04-04T06:21:45.427Z,1392.00
2019-04-04T06:22:45.441Z,1416.00
2019-04-04T06:23:45.410Z,1464.00
2019-04-04T06:24:45.396Z,1492.00
2019-04-04T06:25:45.418Z,1492.00
2019-04-04T06:26:45.426Z,1484.00
2019-04-04T06:27:45.361Z,1464.00
2019-04-04T06:28:45.353Z,1432.00
2019-04-04T06:29:47.571Z,1396.00
2019-04-04T06:30:45.358Z,1356.00
2019-04-04T06:31:45.359Z,1304.00
2019-04-04T06:32:45.307Z,1260.00
2019-04-04T06:33:45.309Z,1256.00
2019-04-04T06:34:45.285Z,1308.00
2019-04-04T06:35:47.869Z,1424.00
2019-04-04T06:36:47.034Z,1544.00
2019-04-04T06:37:46.192Z,1616.00
2019-04-04T06:38:45.253Z,1624.00
2019-04-04T06:39:45.233Z,1572.00
2019-04-04T06:40:45.239Z,1512.00
2019-04-04T06:41:45.204Z,1476.00
2019-04-04T06:42:45.207Z,1464.00
2019-04-04T06:43:45.203Z,1480.00
2019-04-04T06:44:45.206Z,1508.00
2019-04-04T06:45:46.516Z,1480.00
2019-04-04T06:46:45.151Z,1372.00
2019-04-04T06:47:45.137Z,1220.00
2019-04-04T06:48:45.129Z,1120.00
2019-04-04T06:49:45.873Z,1112.00
2019-04-04T06:50:45.136Z,1184.00
2019-04-04T06:51:46.434Z,1308.00
2019-04-04T06:52:45.118Z,1440.00
2019-04-04T06:53:46.882Z,1520.00
2019-04-04T06:54:45.065Z,1556.00
2019-04-04T06:55:45.056Z,1548.00
2019-04-04T06:56:45.061Z,1560.00
2019-04-04T06:57:47.549Z,1604.00
2019-04-04T06:58:45.015Z,1668.00
2019-04-04T06:59:45.008Z,1792.00
2019-04-04T07:00:48.473Z,1936.00
2019-04-04T07:01:44.981Z,2044.00
2019-04-04T07:02:47.174Z,2180.00
2019-04-04T07:03:44.957Z,2332.00
2019-04-04T07:04:44.946Z,2424.00
2019-04-04T07:05:44.955Z,2536.00
2019-04-04T07:06:44.927Z,2624.00
2019-04-04T07:07:44.918Z,2624.00
2019-04-04T07:08:45.108Z,2564.00
2019-04-04T07:09:44.918Z,2504.00
2019-04-04T07:10:57.149Z,2480.00
2019-04-04T07:11:45.872Z,2580.00
2019-04-04T07:12:44.862Z,2752.00
2019-04-04T07:13:44.871Z,2932.00
2019-04-04T07:14:45.945Z,3124.00
2019-04-04T07:15:46.905Z,3160.00
2019-04-04T07:16:45.824Z,2856.00
2019-04-04T07:17:44.803Z,2500.00
2019-04-04T07:18:44.792Z,2252.00
2019-04-04T07:19:46.256Z,2052.00
2019-04-04T07:20:47.903Z,2004.00
2019-04-04T07:21:44.764Z,2204.00
2019-04-04T07:22:44.765Z,2668.00
2019-04-04T07:23:44.763Z,3072.00
2019-04-04T07:24:44.730Z,3284.00
2019-04-04T07:25:44.749Z,3412.00
2019-04-04T07:26:45.523Z,3324.00
2019-04-04T07:27:47.117Z,3116.00
2019-04-04T07:28:44.696Z,2832.00
2019-04-04T07:29:44.666Z,2596.00
2019-04-04T07:30:44.657Z,2372.00
2019-04-04T07:31:44.649Z,2276.00
2019-04-04T07:32:44.630Z,2208.00
2019-04-04T07:33:44.659Z,2172.00
2019-04-04T07:34:45.831Z,2356.00
2019-04-04T07:35:44.601Z,2564.00
2019-04-04T07:36:44.590Z,2900.00
2019-04-04T07:37:44.579Z,2996.00
2019-04-04T07:38:44.590Z,2924.00
2019-04-04T07:39:44.555Z,2888.00
2019-04-04T07:40:44.544Z,2884.00
2019-04-04T07:41:44.986Z,3136.00
2019-04-04T07:42:47.011Z,3332.00
2019-04-04T07:43:44.517Z,3396.00
2019-04-04T07:44:44.520Z,3488.00
2019-04-04T07:45:44.509Z,3572.00
2019-04-04T07:46:45.717Z,3648.00
2019-04-04T07:47:46.650Z,3816.00
2019-04-04T07:48:44.481Z,3796.00
2019-04-04T07:49:44.464Z,3484.00
2019-04-04T07:50:44.429Z,3276.00
2019-04-04T07:51:44.417Z,3168.00
2019-04-04T07:52:44.408Z,2896.00
2019-04-04T07:53:44.398Z,2740.00
2019-04-04T07:54:44.411Z,2904.00
2019-04-04T07:55:44.372Z,3496.00
2019-04-04T07:56:46.881Z,4420.00
2019-04-04T07:57:44.352Z,4576.00
2019-04-04T07:58:44.338Z,4456.00
2019-04-04T07:59:44.344Z,4092.00
2019-04-04T08:00:44.317Z,3268.00
2019-04-04T08:01:51.023Z,2812.00
2019-04-04T08:02:45.293Z,2660.00
2019-04-04T08:03:44.283Z,2628.00
2019-04-04T08:04:44.301Z,3144.00
2019-04-04T08:05:44.259Z,3812.00
2019-04-04T08:06:44.247Z,4624.00
2019-04-04T08:07:44.238Z,4204.00
2019-04-04T08:08:44.247Z,3432.00
2019-04-04T08:09:44.220Z,3288.00
2019-04-04T08:10:44.206Z,3968.00
2019-04-04T08:11:44.219Z,4188.00
2019-04-04T08:12:44.201Z,4184.00
2019-04-04T08:13:44.172Z,4796.00
2019-04-04T08:14:44.161Z,5204.00
2019-04-04T08:15:44.168Z,4956.00
2019-04-04T08:16:44.135Z,5100.00
2019-04-04T08:17:44.129Z,5436.00
2019-04-04T08:18:44.112Z,5144.00
2019-04-04T08:19:44.139Z,4852.00
2019-04-04T08:20:44.098Z,4476.00
2019-04-04T08:21:44.083Z,3636.00
2019-04-04T08:22:44.068Z,3280.00
2019-04-04T08:23:44.054Z,3484.00
2019-04-04T08:24:44.082Z,3612.00
2019-04-04T08:25:44.032Z,3596.00
2019-04-04T08:26:44.026Z,3212.00
2019-04-04T08:27:44.043Z,2784.00
2019-04-04T08:28:43.999Z,2368.00
2019-04-04T08:29:43.988Z,2008.00
2019-04-04T08:30:44.001Z,2488.00
2019-04-04T08:31:43.967Z,2944.00
2019-04-04T08:32:43.968Z,3260.00
2019-04-04T08:33:43.940Z,2764.00
2019-04-04T08:34:43.951Z,2236.00
2019-04-04T08:35:43.925Z,1528.00
2019-04-04T08:36:43.937Z,1476.00
2019-04-04T08:37:43.900Z,1936.00
2019-04-04T08:38:43.886Z,2528.00
2019-04-04T08:39:43.876Z,2776.00
2019-04-04T08:40:46.093Z,2920.00
2019-04-04T08:41:43.875Z,2968.00
2019-04-04T08:42:43.849Z,3016.00
2019-04-04T08:43:43.838Z,3352.00
2019-04-04T08:44:43.819Z,3492.00
2019-04-04T08:45:43.815Z,2976.00
2019-04-04T08:46:43.821Z,2800.00
2019-04-04T08:47:43.846Z,3416.00
2019-04-04T08:48:43.772Z,3800.00
2019-04-04T08:49:43.784Z,3476.00
2019-04-04T08:50:43.750Z,3180.00
2019-04-04T08:51:43.750Z,2944.00
2019-04-04T08:52:43.730Z,3092.00
2019-04-04T08:53:43.718Z,3756.00
2019-04-04T08:54:43.720Z,4572.00
2019-04-04T08:55:43.697Z,4924.00
2019-04-04T08:56:43.682Z,4872.00
2019-04-04T08:57:43.697Z,4492.00
2019-04-04T08:58:43.659Z,3872.00
2019-04-04T08:59:43.655Z,3304.00
2019-04-04T09:00:43.637Z,3456.00
2019-04-04T09:01:43.630Z,3160.00
2019-04-04T09:02:43.638Z,3560.00
2019-04-04T09:03:43.634Z,3752.00
2019-04-04T09:04:43.596Z,3888.00
2019-04-04T09:05:43.585Z,3912.00
2019-04-04T09:06:43.568Z,3336.00
2019-04-04T09:07:43.559Z,3508.00
2019-04-04T09:08:43.578Z,3996.00
2019-04-04T09:09:43.638Z,3780.00
2019-04-04T09:10:43.535Z,3548.00
2019-04-04T09:11:43.511Z,3420.00
2019-04-04T09:12:43.503Z,3284.00
2019-04-04T09:13:43.488Z,3104.00
2019-04-04T09:14:43.500Z,3140.00
2019-04-04T09:15:43.469Z,3268.00
2019-04-04T09:16:43.456Z,3416.00
2019-04-04T09:17:43.458Z,3596.00
2019-04-04T09:18:43.432Z,3212.00
2019-04-04T09:19:43.438Z,2692.00
2019-04-04T09:20:43.411Z,2588.00
2019-04-04T09:21:43.412Z,3192.00
2019-04-04T09:22:43.389Z,4204.00
2019-04-04T09:23:43.401Z,4820.00
2019-04-04T09:24:43.373Z,4908.00
2019-04-04T09:25:43.359Z,4760.00
2019-04-04T09:26:43.373Z,3764.00
2019-04-04T09:27:43.345Z,2464.00
2019-04-04T09:28:43.321Z,2376.00
2019-04-04T09:29:43.309Z,3096.00
2019-04-04T09:30:43.299Z,3924.00
2019-04-04T09:31:43.313Z,4620.00
2019-04-04T09:32:43.275Z,4960.00
2019-04-04T09:33:43.265Z,4900.00
2019-04-04T09:34:43.277Z,4184.00
2019-04-04T09:35:43.249Z,2596.00
2019-04-04T09:36:43.231Z,1824.00
2019-04-04T09:37:43.252Z,2668.00
2019-04-04T09:38:43.206Z,3380.00
2019-04-04T09:39:43.202Z,3444.00
2019-04-04T09:40:43.203Z,3704.00
2019-04-04T09:41:43.174Z,3952.00
2019-04-04T09:42:43.170Z,4524.00
2019-04-04T09:43:43.183Z,4516.00
2019-04-04T09:44:43.139Z,3992.00
2019-04-04T09:45:43.742Z,3412.00
2019-04-04T09:46:43.128Z,3168.00
2019-04-04T09:47:43.131Z,2796.00
2019-04-04T09:48:43.102Z,2272.00
2019-04-04T09:49:43.097Z,1948.00
2019-04-04T09:50:43.113Z,1912.00
2019-04-04T09:51:43.063Z,2956.00
2019-04-04T09:52:43.049Z,4012.00
2019-04-04T09:53:52.840Z,4184.00
2019-04-04T09:54:44.032Z,3384.00
2019-04-04T09:55:43.042Z,2548.00
2019-04-04T09:56:43.011Z,2940.00
2019-04-04T09:57:43.020Z,3612.00
2019-04-04T09:58:42.988Z,4568.00
2019-04-04T09:59:42.971Z,4416.00
2019-04-04T10:00:42.990Z,3884.00
2019-04-04T10:01:42.952Z,3756.00
2019-04-04T10:02:42.941Z,4312.00
2019-04-04T10:03:42.931Z,5656.00
2019-04-04T10:04:42.917Z,6408.00
2019-04-04T10:05:42.932Z,6436.00
2019-04-04T10:06:42.890Z,5668.00
2019-04-04T10:07:42.879Z,5444.00
2019-04-04T10:08:42.935Z,5384.00
2019-04-04T10:09:42.859Z,4136.00
2019-04-04T10:10:42.852Z,3760.00
2019-04-04T10:11:42.844Z,3804.00
2019-04-04T10:12:42.827Z,3956.00
2019-04-04T10:13:42.840Z,4972.00
2019-04-04T10:14:42.805Z,5548.00
2019-04-04T10:15:42.790Z,5336.00
2019-04-04T10:16:42.778Z,6024.00
2019-04-04T10:17:42.783Z,5996.00
2019-04-04T10:18:42.756Z,5536.00
2019-04-04T10:19:42.748Z,5176.00
2019-04-04T10:20:42.736Z,5556.00
2019-04-04T10:21:42.756Z,6336.00
2019-04-04T10:22:42.710Z,6920.00
2019-04-04T10:23:42.701Z,7380.00
2019-04-04T10:24:42.703Z,7656.00
2019-04-04T10:25:42.701Z,7356.00
2019-04-04T10:26:42.665Z,7084.00
2019-04-04T10:27:42.658Z,6976.00
2019-04-04T10:28:42.642Z,7052.00
2019-04-04T10:29:42.651Z,7420.00
2019-04-04T10:30:42.650Z,7380.00
2019-04-04T10:31:42.608Z,7516.00
2019-04-04T10:32:42.599Z,7732.00
2019-04-04T10:33:42.603Z,7676.00
2019-04-04T10:34:42.610Z,7948.00
2019-04-04T10:35:42.577Z,8568.00
2019-04-04T10:36:42.554Z,10032.00
2019-04-04T10:37:42.571Z,9656.00
2019-04-04T10:38:42.541Z,9952.00
2019-04-04T10:39:42.520Z,10176.00
2019-04-04T10:40:42.508Z,9588.00
2019-04-04T10:41:42.498Z,8784.00
2019-04-04T10:42:42.523Z,7936.00
2019-04-04T10:43:42.479Z,6620.00
2019-04-04T10:44:42.463Z,5956.00
2019-04-04T10:45:42.639Z,5660.00
2019-04-04T10:46:42.446Z,5428.00
2019-04-04T10:47:42.553Z,5616.00
2019-04-04T10:48:42.418Z,5748.00
2019-04-04T10:49:42.425Z,4992.00
2019-04-04T10:50:42.394Z,4104.00
2019-04-04T10:51:42.411Z,3756.00
2019-04-04T10:52:42.399Z,3784.00
2019-04-04T10:53:42.362Z,4016.00
2019-04-04T10:54:42.351Z,4364.00
2019-04-04T10:55:42.339Z,3856.00
2019-04-04T10:56:42.354Z,3896.00
2019-04-04T10:57:42.317Z,4552.00
2019-04-04T10:58:42.330Z,4736.00
2019-04-04T10:59:42.326Z,5696.00
2019-04-04T11:00:42.284Z,5784.00
2019-04-04T11:01:42.312Z,5808.00
2019-04-04T11:02:42.336Z,5628.00
2019-04-04T11:03:42.250Z,5980.00
2019-04-04T11:04:42.244Z,6652.00
2019-04-04T11:05:42.237Z,7268.00
2019-04-04T11:06:42.246Z,7096.00
2019-04-04T11:07:42.203Z,6988.00
2019-04-04T11:08:42.194Z,7212.00
2019-04-04T11:09:42.543Z,7504.00
2019-04-04T11:10:42.194Z,7392.00
2019-04-04T11:11:42.197Z,7540.00
2019-04-04T11:12:42.150Z,7672.00
2019-04-04T11:13:42.140Z,7372.00
2019-04-04T11:14:42.127Z,6420.00
2019-04-04T11:15:42.125Z,5796.00
2019-04-04T11:16:42.124Z,5556.00
2019-04-04T11:17:42.094Z,5648.00
2019-04-04T11:18:42.079Z,6940.00
2019-04-04T11:19:43.535Z,8176.00
2019-04-04T11:20:42.075Z,8560.00
2019-04-04T11:21:42.046Z,8512.00
2019-04-04T11:22:42.067Z,7880.00
2019-04-04T11:23:42.025Z,6104.00
2019-04-04T11:24:42.020Z,4776.00
2019-04-04T11:25:42.003Z,4536.00
2019-04-04T11:26:42.024Z,4652.00
2019-04-04T11:27:41.988Z,4996.00
2019-04-04T11:28:41.971Z,5592.00
2019-04-04T11:29:41.955Z,6692.00
2019-04-04T11:30:41.952Z,7372.00
2019-04-04T11:31:41.957Z,7992.00
2019-04-04T11:32:41.952Z,7940.00
2019-04-04T11:33:41.914Z,7896.00
2019-04-04T11:34:52.689Z,7832.00
2019-04-04T11:35:42.887Z,7700.00
2019-04-04T11:36:41.887Z,7060.00
2019-04-04T11:37:41.895Z,6368.00
2019-04-04T11:38:44.086Z,6200.00
2019-04-04T11:39:53.751Z,6100.00
2019-04-04T11:40:42.832Z,5800.00
2019-04-04T11:41:41.827Z,6016.00
2019-04-04T11:42:41.848Z,5704.00
2019-04-04T11:43:41.806Z,5292.00
2019-04-04T11:44:41.797Z,5220.00
2019-04-04T11:45:41.779Z,4952.00
2019-04-04T11:46:41.768Z,4376.00
2019-04-04T11:47:41.785Z,4380.00
2019-04-04T11:48:41.742Z,4228.00
2019-04-04T11:49:41.754Z,4176.00
2019-04-04T11:50:41.749Z,4104.00
2019-04-04T11:51:41.710Z,3856.00
2019-04-04T11:52:41.728Z,3556.00
2019-04-04T11:53:41.686Z,3404.00
2019-04-04T11:54:41.687Z,3264.00
2019-04-04T11:55:41.667Z,3176.00
2019-04-04T11:56:41.658Z,3056.00
2019-04-04T11:57:41.664Z,3004.00
2019-04-04T11:58:41.629Z,3108.00
2019-04-04T11:59:41.653Z,3352.00
2019-04-04T12:00:41.608Z,3344.00
2019-04-04T12:01:41.594Z,3220.00
2019-04-04T12:02:41.612Z,3144.00
2019-04-04T12:03:41.583Z,3072.00
2019-04-04T12:04:41.562Z,2980.00
2019-04-04T12:05:41.573Z,2824.00
2019-04-04T12:06:41.541Z,2736.00
2019-04-04T12:07:41.526Z,2720.00
2019-04-04T12:08:41.524Z,2748.00
2019-04-04T12:09:41.508Z,2844.00
2019-04-04T12:10:41.517Z,2748.00
2019-04-04T12:11:41.486Z,2696.00
2019-04-04T12:12:41.470Z,2656.00
2019-04-04T12:13:41.464Z,2540.00
2019-04-04T12:14:41.488Z,2584.00
2019-04-04T12:15:41.436Z,2668.00
2019-04-04T12:16:41.426Z,2704.00
2019-04-04T12:17:41.415Z,2776.00
2019-04-04T12:18:41.404Z,2840.00
2019-04-04T12:19:41.423Z,2892.00
2019-04-04T12:20:43.325Z,2948.00
2019-04-04T12:21:41.369Z,3064.00
2019-04-04T12:22:41.388Z,3112.00
2019-04-04T12:23:41.347Z,3020.00
2019-04-04T12:24:41.384Z,2912.00
2019-04-04T12:25:41.323Z,2800.00
2019-04-04T12:26:41.314Z,2788.00
2019-04-04T12:27:41.313Z,2748.00
2019-04-04T12:28:41.291Z,2708.00
2019-04-04T12:29:41.309Z,2700.00
2019-04-04T12:30:41.267Z,2724.00
2019-04-04T12:31:41.259Z,2812.00
2019-04-04T12:32:41.246Z,2856.00
2019-04-04T12:33:41.238Z,2964.00
2019-04-04T12:34:41.252Z,3068.00